Time;durP1;ratioP1;P1;durP2;ratioP2;P2;SDS_P1;SDS_P2;PMS_P1;PMS_P2;Temp;Humidity;BMP_temperature;BMP_pressure;BME280_temperature;BME280_humidity;BME280_pressure;Samples;Min_cycle;Max_cycle;Signal;HPM_P1;HPM_P2
2022/05/18 00:00:21;;;;;;;2.70;1.10;;;;;;;;;;4992948;28;20049;-68
2022/05/18 00:02:47;;;;;;;3.30;1.17;;;;;;;;;;4992942;28;20553;-72
2022/05/18 00:05:13;;;;;;;3.60;1.05;;;;;;;;;;4992979;28;20656;-72
2022/05/18 00:07:39;;;;;;;4.70;0.93;;;;;;;;;;4992292;28;20102;-71
2022/05/18 00:10:05;;;;;;;3.70;1.05;;;;;;;;;;4992948;28;20105;-69
2022/05/18 00:12:31;;;;;;;5.32;1.77;;;;;;;;;;4992649;28;20048;-71
2022/05/18 00:14:57;;;;;;;3.35;1.65;;;;;;;;;;4992754;28;20031;-72
2022/05/18 00:17:22;;;;;;;5.55;1.00;;;;;;;;;;4992780;28;20478;-69
2022/05/18 00:19:48;;;;;;;3.75;1.20;;;;;;;;;;4992749;28;20031;-71
2022/05/18 00:22:14;;;;;;;4.03;1.20;;;;;;;;;;4992655;28;20031;-70
2022/05/18 00:24:40;;;;;;;4.97;1.25;;;;;;;;;;4991474;28;20033;-73
2022/05/18 00:27:06;;;;;;;2.72;1.13;;;;;;;;;;4992494;28;20027;-67
2022/05/18 00:29:33;;;;;;;4.68;1.30;;;;;;;;;;4993007;28;20494;-69
2022/05/18 00:31:58;;;;;;;5.70;1.20;;;;;;;;;;4996426;28;20035;-71
2022/05/18 00:34:24;;;;;;;3.10;1.20;;;;;;;;;;4996379;28;20029;-71
2022/05/18 00:36:49;;;;;;;4.22;1.17;;;;;;;;;;4996609;28;20113;-67
2022/05/18 00:39:15;;;;;;;4.50;0.95;;;;;;;;;;4996275;28;20038;-70
2022/05/18 00:41:41;;;;;;;3.03;1.00;;;;;;;;;;4995929;28;20065;-68
2022/05/18 00:44:07;;;;;;;2.97;0.90;;;;;;;;;;4996220;28;20034;-70
2022/05/18 00:46:33;;;;;;;2.13;0.82;;;;;;;;;;4996103;28;20022;-71
2022/05/18 00:49:03;;;;;;;3.63;1.20;;;;;;;;;;4995840;28;20038;-68
2022/05/18 00:51:34;;;;;;;3.53;1.10;;;;;;;;;;4995921;28;20038;-66
2022/05/18 00:54:05;;;;;;;3.50;1.20;;;;;;;;;;4996075;28;20080;-63
2022/05/18 00:56:51;;;;;;;7.22;1.00;;;;;;;;;;4995789;28;20476;-71
2022/05/18 00:59:26;;;;;;;2.38;0.93;;;;;;;;;;4995786;28;20073;-70
2022/05/18 01:01:53;;;;;;;3.88;1.05;;;;;;;;;;4993871;28;20030;-64
2022/05/18 01:04:18;;;;;;;1.80;0.90;;;;;;;;;;4993206;28;20022;-69
2022/05/18 01:06:57;;;;;;;2.28;0.80;;;;;;;;;;4992711;28;20104;-68
2022/05/18 01:09:28;;;;;;;5.05;1.20;;;;;;;;;;4992115;28;20026;-69
2022/05/18 01:11:54;;;;;;;;;;;;;;;;;;4993341;28;20022;-68
2022/05/18 01:14:25;;;;;;;3.72;1.05;;;;;;;;;;4992804;28;19942;-68
2022/05/18 01:16:52;;;;;;;2.58;1.00;;;;;;;;;;4992729;28;20022;-70
2022/05/18 01:19:30;;;;;;;4.22;1.00;;;;;;;;;;4993130;28;20037;-70
2022/05/18 01:22:36;;;;;;;1.60;1.05;;;;;;;;;;4995037;28;20030;-66
2022/05/18 01:25:20;;;;;;;2.50;1.10;;;;;;;;;;4988664;28;20145;-70
2022/05/18 01:27:46;;;;;;;4.45;1.10;;;;;;;;;;4995286;28;20057;-63
2022/05/18 01:30:12;;;;;;;2.92;1.00;;;;;;;;;;4995295;28;20065;-70
2022/05/18 01:32:47;;;;;;;1.42;0.88;;;;;;;;;;4995366;28;20479;-68
2022/05/18 01:35:20;;;;;;;3.45;1.00;;;;;;;;;;4995246;28;20034;-70
2022/05/18 01:37:46;;;;;;;1.92;1.10;;;;;;;;;;4995164;28;20034;-69
2022/05/18 01:40:20;;;;;;;2.33;1.58;;;;;;;;;;4994937;28;20030;-70
2022/05/18 01:42:47;;;;;;;1.48;0.90;;;;;;;;;;4994383;28;20052;-67
2022/05/18 01:45:14;;;;;;;3.03;1.17;;;;;;;;;;4995135;28;20022;-68
2022/05/18 01:47:40;;;;;;;2.13;1.05;;;;;;;;;;4995021;28;20030;-69
2022/05/18 01:50:11;;;;;;;2.95;0.98;;;;;;;;;;4995130;28;20030;-69
2022/05/18 01:52:37;;;;;;;;;;;;;;;;;;4995378;28;20027;-72
2022/05/18 01:55:03;;;;;;;2.03;1.05;;;;;;;;;;4994675;28;19914;-68
2022/05/18 01:57:29;;;;;;;3.53;0.93;;;;;;;;;;4994920;28;20452;-69
2022/05/18 01:59:54;;;;;;;2.63;0.88;;;;;;;;;;4994884;28;20118;-69
2022/05/18 02:02:22;;;;;;;3.22;0.90;;;;;;;;;;4994675;28;20073;-67
2022/05/18 02:04:48;;;;;;;2.28;0.88;;;;;;;;;;4994701;28;20046;-67
2022/05/18 02:07:14;;;;;;;2.25;0.88;;;;;;;;;;4994234;28;20049;-67
2022/05/18 02:09:39;;;;;;;1.92;0.80;;;;;;;;;;4994349;28;20022;-70
2022/05/18 02:12:08;;;;;;;1.38;0.88;;;;;;;;;;4994628;28;20077;-66
2022/05/18 02:14:33;;;;;;;1.55;0.90;;;;;;;;;;4994476;28;20049;-70
2022/05/18 02:16:59;;;;;;;3.03;0.75;;;;;;;;;;4994366;28;20026;-69
2022/05/18 02:19:24;;;;;;;3.30;0.90;;;;;;;;;;4994594;28;20431;-69
2022/05/18 02:21:50;;;;;;;3.10;0.77;;;;;;;;;;4994356;28;20033;-70
2022/05/18 02:24:16;;;;;;;1.35;0.70;;;;;;;;;;4994186;28;20028;-68
2022/05/18 02:26:42;;;;;;;2.42;0.88;;;;;;;;;;4994300;28;20031;-70
2022/05/18 02:29:08;;;;;;;2.97;0.80;;;;;;;;;;4994148;28;20042;-70
2022/05/18 02:31:34;;;;;;;1.17;0.60;;;;;;;;;;4994357;28;20057;-70
2022/05/18 02:33:59;;;;;;;0.93;0.70;;;;;;;;;;4994226;28;20037;-68
2022/05/18 02:36:26;;;;;;;0.40;0.40;;;;;;;;;;4994109;28;20026;-68
2022/05/18 02:38:52;;;;;;;1.33;0.60;;;;;;;;;;4993757;28;20027;-70
2022/05/18 02:41:18;;;;;;;4.13;0.98;;;;;;;;;;4994051;28;20534;-70
2022/05/18 02:43:43;;;;;;;3.20;0.82;;;;;;;;;;4993984;28;20061;-68
2022/05/18 02:46:13;;;;;;;1.15;0.80;;;;;;;;;;4993839;28;20061;-69
2022/05/18 02:48:40;;;;;;;1.90;1.13;;;;;;;;;;4993570;28;20042;-71
2022/05/18 02:51:07;;;;;;;1.70;0.90;;;;;;;;;;4993857;28;20503;-70
2022/05/18 02:53:33;;;;;;;1.45;0.88;;;;;;;;;;4992549;28;20085;-62
2022/05/18 02:56:08;;;;;;;1.60;0.85;;;;;;;;;;4993720;28;20030;-68
2022/05/18 02:58:44;;;;;;;1.90;0.90;;;;;;;;;;4993566;28;20027;-68
2022/05/18 03:01:16;;;;;;;1.85;0.90;;;;;;;;;;4993620;28;20113;-66
2022/05/18 03:03:41;;;;;;;1.73;1.05;;;;;;;;;;4993632;28;20101;-68
2022/05/18 03:06:10;;;;;;;1.67;0.88;;;;;;;;;;4993039;28;20150;-69
2022/05/18 03:08:39;;;;;;;1.50;0.73;;;;;;;;;;4993342;28;20034;-69
2022/05/18 03:11:05;;;;;;;1.88;1.10;;;;;;;;;;4993510;28;20036;-64
2022/05/18 03:13:30;;;;;;;0.95;0.70;;;;;;;;;;4993587;28;20442;-66
2022/05/18 03:15:56;;;;;;;2.17;0.90;;;;;;;;;;4993512;28;20037;-68
2022/05/18 03:18:22;;;;;;;1.40;0.65;;;;;;;;;;4993481;28;20018;-68
2022/05/18 03:23:35;;;;;;;4.72;0.80;;;;;;;;;;4993537;28;20081;-69
2022/05/18 03:26:06;;;;;;;3.95;0.90;;;;;;;;;;4993305;28;20022;-66
2022/05/18 03:28:32;;;;;;;3.28;1.08;;;;;;;;;;4993205;28;20038;-71
2022/05/18 03:30:58;;;;;;;4.00;0.80;;;;;;;;;;4993219;28;20061;-69
2022/05/18 03:33:24;;;;;;;2.53;0.80;;;;;;;;;;4993303;28;20444;-70
2022/05/18 03:35:51;;;;;;;2.75;0.95;;;;;;;;;;4992972;28;20022;-64
2022/05/18 03:38:18;;;;;;;2.25;0.82;;;;;;;;;;4991821;28;20459;-70
2022/05/18 03:40:44;;;;;;;1.15;0.60;;;;;;;;;;4993051;28;20061;-70
2022/05/18 03:43:10;;;;;;;0.90;0.75;;;;;;;;;;4993001;28;20034;-71
2022/05/18 03:45:35;;;;;;;1.48;0.80;;;;;;;;;;4993122;28;20475;-66
2022/05/18 03:48:01;;;;;;;1.15;0.80;;;;;;;;;;4993004;28;20030;-68
2022/05/18 03:50:28;;;;;;;3.15;1.00;;;;;;;;;;4992844;28;20030;-70
2022/05/18 03:52:58;;;;;;;5.72;0.93;;;;;;;;;;4993005;28;20026;-70
2022/05/18 03:55:25;;;;;;;4.40;1.50;;;;;;;;;;4993197;28;20085;-69
2022/05/18 03:57:51;;;;;;;4.95;0.80;;;;;;;;;;4992859;28;20045;-70
2022/05/18 04:00:18;;;;;;;2.85;1.00;;;;;;;;;;4992835;28;20026;-70
2022/05/18 04:02:47;;;;;;;6.97;0.98;;;;;;;;;;4991528;28;20027;-69
2022/05/18 04:05:14;;;;;;;12.20;1.35;;;;;;;;;;4994435;28;20026;-70
2022/05/18 04:07:40;;;;;;;4.82;1.30;;;;;;;;;;4996410;28;20100;-70
2022/05/18 04:10:06;;;;;;;4.70;1.05;;;;;;;;;;4996859;28;20471;-68
2022/05/18 04:12:31;;;;;;;5.70;1.17;;;;;;;;;;4996730;28;20035;-71
2022/05/18 04:14:57;;;;;;;3.13;1.00;;;;;;;;;;4996526;28;20475;-69
2022/05/18 04:17:25;;;;;;;1.90;0.93;;;;;;;;;;4996632;28;20026;-70
2022/05/18 04:19:51;;;;;;;3.88;0.98;;;;;;;;;;4996396;28;20030;-69
2022/05/18 04:22:19;;;;;;;2.92;1.00;;;;;;;;;;4996483;28;20395;-68
2022/05/18 04:24:45;;;;;;;1.55;0.75;;;;;;;;;;4996293;28;20030;-70
2022/05/18 04:27:10;;;;;;;1.88;0.85;;;;;;;;;;4996340;28;20519;-66
2022/05/18 04:29:36;;;;;;;0.90;0.55;;;;;;;;;;4996251;28;20030;-68
2022/05/18 04:32:03;;;;;;;2.13;0.90;;;;;;;;;;4996341;28;20110;-70
2022/05/18 04:34:28;;;;;;;1.73;0.85;;;;;;;;;;4996365;28;20035;-71
2022/05/18 04:36:54;;;;;;;1.38;0.80;;;;;;;;;;4996174;28;20034;-69
2022/05/18 04:39:19;;;;;;;0.63;0.60;;;;;;;;;;4996314;28;20026;-70
2022/05/18 04:41:45;;;;;;;1.30;0.90;;;;;;;;;;4996185;28;20054;-69
2022/05/18 04:44:11;;;;;;;2.40;0.80;;;;;;;;;;4996166;28;20022;-70
2022/05/18 04:46:36;;;;;;;2.50;0.63;;;;;;;;;;4996209;28;20022;-69
2022/05/18 04:49:03;;;;;;;2.33;1.02;;;;;;;;;;4995759;28;20034;-69
2022/05/18 04:51:28;;;;;;;2.47;0.93;;;;;;;;;;4995956;28;20049;-69
2022/05/18 04:53:54;;;;;;;4.57;0.85;;;;;;;;;;4995945;28;20026;-65
2022/05/18 04:56:19;;;;;;;1.38;0.90;;;;;;;;;;4995923;28;20468;-69
2022/05/18 04:58:45;;;;;;;1.10;0.68;;;;;;;;;;4995770;28;20061;-70
2022/05/18 05:01:11;;;;;;;2.25;0.88;;;;;;;;;;4995815;28;20076;-69
2022/05/18 05:03:37;;;;;;;1.15;0.70;;;;;;;;;;4995511;28;20026;-72
2022/05/18 05:06:04;;;;;;;4.15;1.00;;;;;;;;;;4995374;28;20042;-69
2022/05/18 05:08:31;;;;;;;0.65;0.60;;;;;;;;;;4995449;28;20038;-68
2022/05/18 05:10:56;;;;;;;0.98;0.70;;;;;;;;;;4995508;28;20030;-70
2022/05/18 05:13:23;;;;;;;4.10;1.10;;;;;;;;;;4995305;28;20049;-69
2022/05/18 05:15:51;;;;;;;2.88;1.05;;;;;;;;;;4994901;28;20026;-69
2022/05/18 05:18:17;;;;;;;2.55;0.80;;;;;;;;;;4995003;28;20042;-70
2022/05/18 05:20:42;;;;;;;1.83;0.80;;;;;;;;;;4992041;28;20023;-69
2022/05/18 05:23:08;;;;;;;3.33;1.10;;;;;;;;;;4992450;28;20100;-70
2022/05/18 05:25:33;;;;;;;10.98;1.10;;;;;;;;;;4992227;28;20039;-71
2022/05/18 05:27:59;;;;;;;3.67;1.00;;;;;;;;;;4992152;28;20028;-71
2022/05/18 05:30:27;;;;;;;1.85;1.00;;;;;;;;;;4992400;28;20037;-71
2022/05/18 05:32:52;;;;;;;1.85;0.77;;;;;;;;;;4991291;28;20028;-69
2022/05/18 05:35:18;;;;;;;4.85;1.02;;;;;;;;;;4991568;28;20018;-64
2022/05/18 05:37:44;;;;;;;2.05;0.95;;;;;;;;;;4992089;28;20462;-70
2022/05/18 05:40:10;;;;;;;3.50;0.75;;;;;;;;;;4992145;28;20026;-68
2022/05/18 05:42:37;;;;;;;4.43;1.25;;;;;;;;;;4992063;28;20046;-69
2022/05/18 05:45:04;;;;;;;2.95;0.85;;;;;;;;;;4991862;28;20014;-68
2022/05/18 05:47:29;;;;;;;4.18;1.13;;;;;;;;;;4991678;28;20032;-64
2022/05/18 05:49:55;;;;;;;0.70;0.50;;;;;;;;;;4991394;28;20101;-70
2022/05/18 05:52:20;;;;;;;2.95;1.33;;;;;;;;;;4992694;28;20065;-68
2022/05/18 05:54:46;;;;;;;2.53;1.00;;;;;;;;;;4991418;28;20022;-71
2022/05/18 05:57:11;;;;;;;1.88;0.90;;;;;;;;;;4990853;28;20030;-68
2022/05/18 05:59:38;;;;;;;2.38;0.82;;;;;;;;;;4991701;28;20015;-68
2022/05/18 06:02:07;;;;;;;2.30;0.90;;;;;;;;;;4990167;28;20022;-70
2022/05/18 06:04:34;;;;;;;1.87;0.90;;;;;;;;;;4990649;28;20062;-69
2022/05/18 06:06:59;;;;;;;3.63;0.95;;;;;;;;;;4990095;28;20042;-69
2022/05/18 06:09:25;;;;;;;3.50;1.13;;;;;;;;;;4991818;28;20029;-65
2022/05/18 06:11:51;;;;;;;4.05;1.10;;;;;;;;;;4991856;28;20105;-67
2022/05/18 06:14:18;;;;;;;2.80;1.10;;;;;;;;;;4991461;28;20030;-67
2022/05/18 06:16:46;;;;;;;5.93;1.05;;;;;;;;;;4990974;28;20026;-66
2022/05/18 06:19:16;;;;;;;1.92;1.00;;;;;;;;;;4991694;28;20034;-63
2022/05/18 06:21:42;;;;;;;5.13;1.10;;;;;;;;;;4991244;28;20084;-68
2022/05/18 06:24:09;;;;;;;4.72;1.45;;;;;;;;;;4991482;28;20189;-65
2022/05/18 06:26:36;;;;;;;2.25;1.05;;;;;;;;;;4990168;28;20022;-70
2022/05/18 06:29:03;;;;;;;1.83;1.00;;;;;;;;;;4989688;28;20031;-68
2022/05/18 06:31:28;;;;;;;3.60;0.80;;;;;;;;;;4989982;28;20035;-70
2022/05/18 06:33:53;;;;;;;4.22;0.80;;;;;;;;;;4990209;28;20018;-69
2022/05/18 06:36:19;;;;;;;1.80;0.90;;;;;;;;;;4990343;28;20161;-69
2022/05/18 06:38:44;;;;;;;1.40;0.82;;;;;;;;;;4990623;28;20061;-69
2022/05/18 06:41:22;;;;;;;2.20;1.17;;;;;;;;;;4990508;28;20433;-66
2022/05/18 06:44:01;;;;;;;1.85;1.00;;;;;;;;;;4989685;28;20030;-70
2022/05/18 06:46:27;;;;;;;1.65;0.88;;;;;;;;;;4990872;28;20531;-69
2022/05/18 06:48:53;;;;;;;3.83;1.00;;;;;;;;;;4990328;28;20038;-68
2022/05/18 06:51:22;;;;;;;3.78;1.08;;;;;;;;;;4989918;28;20036;-69
2022/05/18 06:53:51;;;;;;;1.60;1.00;;;;;;;;;;4990132;28;20486;-68
2022/05/18 06:56:20;;;;;;;1.75;0.88;;;;;;;;;;4989964;28;20562;-66
2022/05/18 06:58:51;;;;;;;2.10;0.80;;;;;;;;;;4992409;28;20038;-69
2022/05/18 07:01:17;;;;;;;8.02;1.23;;;;;;;;;;4990498;28;20073;-69
2022/05/18 07:03:46;;;;;;;3.03;1.00;;;;;;;;;;4991776;28;20058;-70
2022/05/18 07:06:14;;;;;;;5.10;1.00;;;;;;;;;;4992598;28;20125;-68
2022/05/18 07:08:40;;;;;;;6.05;1.20;;;;;;;;;;4992808;28;20040;-68
2022/05/18 07:11:07;;;;;;;4.00;0.90;;;;;;;;;;4993138;28;20023;-63
2022/05/18 07:13:34;;;;;;;3.08;1.10;;;;;;;;;;4993013;28;20022;-69
2022/05/18 07:16:01;;;;;;;4.57;1.13;;;;;;;;;;4993013;28;20018;-65
2022/05/18 07:18:31;;;;;;;2.85;1.30;;;;;;;;;;4989309;28;20541;-67
2022/05/18 07:20:58;;;;;;;4.30;1.40;;;;;;;;;;4993247;28;20073;-72
2022/05/18 07:23:25;;;;;;;2.33;1.23;;;;;;;;;;4993271;28;20026;-65
2022/05/18 07:25:52;;;;;;;5.10;1.30;;;;;;;;;;4993040;28;20061;-63
2022/05/18 07:28:18;;;;;;;1.92;0.88;;;;;;;;;;4992609;28;20026;-67
2022/05/18 07:30:43;;;;;;;4.18;1.67;;;;;;;;;;4993077;28;20030;-69
2022/05/18 07:33:09;;;;;;;4.70;1.33;;;;;;;;;;4992910;28;20026;-67
2022/05/18 07:35:34;;;;;;;3.45;1.30;;;;;;;;;;4992108;28;20113;-67
2022/05/18 07:38:00;;;;;;;1.65;1.10;;;;;;;;;;4992604;28;20116;-65
2022/05/18 07:40:26;;;;;;;2.47;1.50;;;;;;;;;;4992440;28;20058;-66
2022/05/18 07:42:56;;;;;;;2.42;1.10;;;;;;;;;;4992811;28;20019;-70
2022/05/18 07:45:25;;;;;;;2.38;1.13;;;;;;;;;;4993016;28;20033;-70
2022/05/18 07:47:54;;;;;;;4.38;1.20;;;;;;;;;;4992495;28;20030;-67
2022/05/18 07:50:24;;;;;;;2.58;1.23;;;;;;;;;;4992926;28;20032;-65
2022/05/18 07:52:51;;;;;;;5.03;1.25;;;;;;;;;;4993093;28;20061;-65
2022/05/18 07:55:17;;;;;;;4.32;1.20;;;;;;;;;;4993075;28;20415;-70
2022/05/18 07:57:43;;;;;;;5.90;1.33;;;;;;;;;;4992811;28;20037;-67
2022/05/18 08:00:10;;;;;;;2.00;1.20;;;;;;;;;;4992863;28;20061;-70
2022/05/18 08:02:36;;;;;;;1.98;1.10;;;;;;;;;;4992768;28;20031;-70
2022/05/18 08:05:02;;;;;;;3.88;1.00;;;;;;;;;;4992790;28;20030;-69
2022/05/18 08:07:27;;;;;;;2.42;1.00;;;;;;;;;;5005439;28;20050;-70
2022/05/18 08:15:22;;;;;;;3.63;1.38;;;;;;;;;;5012509;28;20033;-71
2022/05/18 08:17:48;;;;;;;4.80;1.45;;;;;;;;;;5011882;28;20487;-71
2022/05/18 08:20:16;;;;;;;3.08;1.20;;;;;;;;;;5012207;28;20033;-70
2022/05/18 08:22:43;;;;;;;2.88;1.13;;;;;;;;;;5012357;28;20093;-70
2022/05/18 08:25:10;;;;;;;3.28;1.10;;;;;;;;;;5012127;28;20470;-68
2022/05/18 08:27:47;;;;;;;2.78;1.00;;;;;;;;;;5012114;28;20497;-65
2022/05/18 08:30:17;;;;;;;2.63;1.25;;;;;;;;;;5010846;28;20053;-63
2022/05/18 08:32:42;;;;;;;3.85;1.30;;;;;;;;;;5012479;28;20033;-68
2022/05/18 08:35:09;;;;;;;2.72;1.13;;;;;;;;;;5012163;28;20026;-67
2022/05/18 08:37:44;;;;;;;3.55;1.40;;;;;;;;;;5012271;28;20101;-68
2022/05/18 08:40:23;;;;;;;3.00;1.30;;;;;;;;;;5011946;28;20037;-68
2022/05/18 08:42:49;;;;;;;3.95;1.27;;;;;;;;;;5012186;28;20458;-69
2022/05/18 08:45:14;;;;;;;6.55;1.30;;;;;;;;;;5012183;28;20053;-70
2022/05/18 08:47:43;;;;;;;3.95;1.30;;;;;;;;;;5012021;28;20026;-70
2022/05/18 08:50:15;;;;;;;3.77;1.20;;;;;;;;;;5012006;28;20037;-68
2022/05/18 08:53:10;;;;;;;2.03;1.10;;;;;;;;;;5015631;28;20352;-69
2022/05/18 08:55:48;;;;;;;3.53;1.48;;;;;;;;;;4990554;28;20142;-63
2022/05/18 08:58:50;;;;;;;3.42;1.35;;;;;;;;;;4974404;28;20034;-69
2022/05/18 09:01:28;;;;;;;2.25;1.35;;;;;;;;;;4971214;28;20050;-66
2022/05/18 09:03:59;;;;;;;2.00;1.15;;;;;;;;;;4974313;28;20035;-66
2022/05/18 09:06:49;;;;;;;4.30;1.30;;;;;;;;;;4978518;28;20121;-64
2022/05/18 09:12:08;;;;;;;2.65;1.50;;;;;;;;;;4993796;28;20403;-63
2022/05/18 09:14:37;;;;;;;3.35;1.30;;;;;;;;;;4993432;28;20030;-63
2022/05/18 09:17:05;;;;;;;3.10;1.17;;;;;;;;;;4993373;28;20126;-69
2022/05/18 09:19:48;;;;;;;5.07;1.60;;;;;;;;;;4993077;28;20415;-65
2022/05/18 09:22:25;;;;;;;2.28;1.10;;;;;;;;;;4993157;28;20622;-67
2022/05/18 09:25:08;;;;;;;8.13;1.40;;;;;;;;;;4978831;28;20070;-63
2022/05/18 09:28:15;;;;;;;4.07;1.38;;;;;;;;;;4970831;28;20038;-67
2022/05/18 09:31:12;;;;;;;6.47;1.27;;;;;;;;;;4970253;28;20026;-63
2022/05/18 09:33:59;;;;;;;6.90;1.33;;;;;;;;;;4985485;28;20526;-62
2022/05/18 09:37:03;;;;;;;3.33;1.20;;;;;;;;;;4992113;28;20022;-64
2022/05/18 09:39:38;;;;;;;3.88;1.15;;;;;;;;;;4941936;29;20174;-62
2022/05/18 09:42:26;;;;;;;4.50;1.50;;;;;;;;;;4949486;29;20031;-67
2022/05/18 09:45:04;;;;;;;3.92;1.00;;;;;;;;;;4946758;29;20035;-63
2022/05/18 09:47:51;;;;;;;2.55;1.08;;;;;;;;;;4938829;29;20098;-61
2022/05/18 09:50:17;;;;;;;4.30;1.30;;;;;;;;;;4933540;29;20040;-61
2022/05/18 09:52:45;;;;;;;1.75;1.00;;;;;;;;;;4937956;29;20502;-62
2022/05/18 09:55:14;;;;;;;7.20;1.40;;;;;;;;;;4936461;29;20118;-63
2022/05/18 09:58:01;;;;;;;3.17;1.33;;;;;;;;;;4953649;29;20123;-66
2022/05/18 10:00:32;;;;;;;1.95;1.23;;;;;;;;;;4953290;29;20063;-63
2022/05/18 10:08:52;;;;;;;2.85;1.30;;;;;;;;;;4953255;29;20045;-64
2022/05/18 10:11:21;;;;;;;8.25;1.70;;;;;;;;;;4992143;28;20125;-65
2022/05/18 10:14:00;;;;;;;4.55;1.30;;;;;;;;;;4994675;28;20049;-64
2022/05/18 10:16:41;;;;;;;3.22;1.38;;;;;;;;;;4992033;28;20617;-66
2022/05/18 10:19:23;;;;;;;2.65;1.13;;;;;;;;;;4993126;28;20066;-66
2022/05/18 10:21:59;;;;;;;2.17;1.20;;;;;;;;;;4994158;28;20033;-66
2022/05/18 10:24:36;;;;;;;5.40;1.40;;;;;;;;;;4994238;28;20089;-68
2022/05/18 10:27:10;;;;;;;2.47;1.35;;;;;;;;;;4994502;28;20038;-67
2022/05/18 10:29:36;;;;;;;8.60;1.20;;;;;;;;;;4993941;28;20030;-69
2022/05/18 10:32:09;;;;;;;2.40;1.10;;;;;;;;;;4993952;28;20026;-64
2022/05/18 10:34:48;;;;;;;2.95;1.30;;;;;;;;;;4994356;28;20034;-68
2022/05/18 10:37:42;;;;;;;6.43;1.60;;;;;;;;;;4993959;28;20030;-67
2022/05/18 10:40:12;;;;;;;6.70;1.20;;;;;;;;;;4993776;28;20042;-65
2022/05/18 10:43:11;;;;;;;2.78;1.20;;;;;;;;;;4993954;28;20034;-68
2022/05/18 10:45:37;;;;;;;5.60;1.20;;;;;;;;;;4994182;28;20038;-65
2022/05/18 10:48:13;;;;;;;3.15;1.13;;;;;;;;;;4993818;28;20423;-64
2022/05/18 10:50:41;;;;;;;3.47;1.17;;;;;;;;;;4993610;28;20482;-63
2022/05/18 10:53:12;;;;;;;8.98;1.45;;;;;;;;;;4993919;28;20023;-64
2022/05/18 10:55:53;;;;;;;2.10;0.93;;;;;;;;;;4993184;28;20084;-65
2022/05/18 10:58:25;;;;;;;2.50;1.20;;;;;;;;;;4993495;28;20089;-64
2022/05/18 11:00:57;;;;;;;4.15;1.15;;;;;;;;;;4993656;28;20530;-64
2022/05/18 11:03:38;;;;;;;3.28;1.20;;;;;;;;;;4993445;28;20432;-64
2022/05/18 11:06:28;;;;;;;6.13;1.20;;;;;;;;;;4989292;28;20042;-63
2022/05/18 11:08:58;;;;;;;1.35;1.02;;;;;;;;;;4992065;28;20034;-66
2022/05/18 11:11:37;;;;;;;3.22;1.10;;;;;;;;;;4993093;28;20038;-66
2022/05/18 11:14:15;;;;;;;1.80;1.10;;;;;;;;;;4992587;28;20033;-63
2022/05/18 11:16:45;;;;;;;4.25;1.45;;;;;;;;;;4993549;28;20037;-64
2022/05/18 11:19:18;;;;;;;2.47;1.25;;;;;;;;;;4993106;28;20496;-64
2022/05/18 11:22:11;;;;;;;2.42;1.08;;;;;;;;;;4992587;28;20026;-64
2022/05/18 11:24:36;;;;;;;2.33;1.13;;;;;;;;;;4985523;28;20144;-63
2022/05/18 11:27:29;;;;;;;4.15;1.38;;;;;;;;;;4983199;28;20026;-63
2022/05/18 11:30:09;;;;;;;2.13;0.90;;;;;;;;;;4989116;28;20092;-66
2022/05/18 11:32:46;;;;;;;5.72;1.38;;;;;;;;;;4992781;28;20026;-66
2022/05/18 11:35:29;;;;;;;2.97;1.48;;;;;;;;;;4992825;28;20031;-64
2022/05/18 11:38:04;;;;;;;4.85;1.20;;;;;;;;;;4993001;28;20037;-63
2022/05/18 11:40:29;;;;;;;3.72;1.30;;;;;;;;;;4993661;28;20384;-67
2022/05/18 11:43:01;;;;;;;5.28;1.17;;;;;;;;;;4993592;28;20081;-70
2022/05/18 11:45:49;;;;;;;4.72;1.20;;;;;;;;;;4993485;28;20491;-70
2022/05/18 11:48:39;;;;;;;5.22;1.35;;;;;;;;;;4993084;28;20030;-69
2022/05/18 11:51:22;;;;;;;3.22;1.27;;;;;;;;;;4993268;28;20089;-69
2022/05/18 11:54:21;;;;;;;2.63;1.20;;;;;;;;;;4993400;28;20034;-69
2022/05/18 11:57:05;;;;;;;3.05;1.17;;;;;;;;;;4992877;28;20026;-68
2022/05/18 11:59:45;;;;;;;4.57;1.20;;;;;;;;;;4993317;28;20030;-69
2022/05/18 12:02:34;;;;;;;4.70;1.10;;;;;;;;;;4992621;28;20054;-64
2022/05/18 12:05:29;;;;;;;7.18;1.50;;;;;;;;;;4992788;28;20030;-63
2022/05/18 12:08:28;;;;;;;9.02;1.40;;;;;;;;;;5009178;28;20510;-63
2022/05/18 12:11:02;;;;;;;3.15;1.00;;;;;;;;;;5011922;28;20030;-62
2022/05/18 12:13:37;;;;;;;2.83;0.98;;;;;;;;;;5012233;28;20041;-67
2022/05/18 12:16:08;;;;;;;3.25;1.30;;;;;;;;;;5012358;28;20022;-67
2022/05/18 12:18:41;;;;;;;2.03;0.90;;;;;;;;;;5012321;28;20066;-65
2022/05/18 12:21:22;;;;;;;4.15;1.50;;;;;;;;;;5012372;28;20022;-64
2022/05/18 12:23:52;;;;;;;4.68;1.20;;;;;;;;;;5012286;28;20029;-63
2022/05/18 12:26:21;;;;;;;2.55;1.10;;;;;;;;;;5014108;28;20463;-62
2022/05/18 12:28:47;;;;;;;3.92;1.20;;;;;;;;;;5016102;28;20045;-65
2022/05/18 12:31:14;;;;;;;3.95;1.13;;;;;;;;;;5015861;28;20479;-64
2022/05/18 12:33:55;;;;;;;5.30;1.10;;;;;;;;;;5014323;28;20379;-63
2022/05/18 12:36:34;;;;;;;3.08;1.10;;;;;;;;;;4992271;28;20132;-62
2022/05/18 12:39:13;;;;;;;2.42;1.23;;;;;;;;;;4994117;28;20518;-63
2022/05/18 12:41:50;;;;;;;3.40;1.17;;;;;;;;;;4996358;28;20033;-68
2022/05/18 12:44:40;;;;;;;4.07;1.10;;;;;;;;;;4996019;28;20105;-63
2022/05/18 12:47:28;;;;;;;;;;;;;;;;;;4996111;28;20038;-68
2022/05/18 12:50:08;;;;;;;3.05;1.13;;;;;;;;;;4995510;28;20315;-64
2022/05/18 12:52:36;;;;;;;3.80;1.00;;;;;;;;;;4996956;28;20038;-67
2022/05/18 12:55:23;;;;;;;6.20;1.08;;;;;;;;;;4995749;28;20061;-65
2022/05/18 12:57:53;;;;;;;3.08;1.05;;;;;;;;;;4996009;28;20035;-68
2022/05/18 13:00:24;;;;;;;3.05;1.25;;;;;;;;;;4996708;28;20502;-68
2022/05/18 13:03:08;;;;;;;2.83;1.25;;;;;;;;;;5015434;28;20048;-64
2022/05/18 13:05:40;;;;;;;4.78;1.10;;;;;;;;;;5015187;28;20052;-67
2022/05/18 13:08:35;;;;;;;4.65;1.30;;;;;;;;;;5015125;28;20049;-65
2022/05/18 13:11:19;;;;;;;2.42;1.23;;;;;;;;;;5015321;28;20038;-68
2022/05/18 13:14:06;;;;;;;4.75;1.27;;;;;;;;;;5015219;28;20026;-68
2022/05/18 13:16:37;;;;;;;2.40;1.02;;;;;;;;;;5015198;28;20033;-67
2022/05/18 13:19:20;;;;;;;9.23;1.50;;;;;;;;;;5015237;28;20105;-64
2022/05/18 13:21:52;;;;;;;3.70;0.93;;;;;;;;;;5015028;28;20029;-68
2022/05/18 13:24:20;;;;;;;2.08;1.02;;;;;;;;;;5004054;28;20419;-68
2022/05/18 13:26:49;;;;;;;1.95;1.02;;;;;;;;;;4995447;28;20023;-68
2022/05/18 13:29:21;;;;;;;4.35;1.15;;;;;;;;;;4995038;28;20042;-64
2022/05/18 13:32:01;;;;;;;2.95;1.00;;;;;;;;;;4995283;28;20543;-67
2022/05/18 13:34:40;;;;;;;2.88;0.90;;;;;;;;;;4995444;28;20117;-63
2022/05/18 13:37:06;;;;;;;3.08;0.93;;;;;;;;;;4994505;28;20054;-66
2022/05/18 13:39:35;;;;;;;5.35;1.00;;;;;;;;;;4995010;28;20034;-63
2022/05/18 13:42:11;;;;;;;1.38;0.80;;;;;;;;;;4995257;28;20094;-64
2022/05/18 13:44:37;;;;;;;3.50;1.10;;;;;;;;;;4994871;28;20109;-65
2022/05/18 13:47:04;;;;;;;10.32;1.55;;;;;;;;;;4994753;28;20022;-68
2022/05/18 13:49:37;;;;;;;6.80;1.10;;;;;;;;;;4995167;28;20058;-66
2022/05/18 13:52:22;;;;;;;3.67;1.00;;;;;;;;;;4994804;28;20061;-68
2022/05/18 13:54:52;;;;;;;2.75;0.88;;;;;;;;;;4995019;28;20057;-64
2022/05/18 13:57:20;;;;;;;2.53;0.90;;;;;;;;;;4990623;28;20049;-66
2022/05/18 13:59:56;;;;;;;3.22;1.15;;;;;;;;;;4991801;28;20042;-66
2022/05/18 14:02:32;;;;;;;7.03;1.70;;;;;;;;;;4994354;28;20022;-63
2022/05/18 14:05:04;;;;;;;4.80;1.20;;;;;;;;;;4994670;28;20483;-69
2022/05/18 14:07:31;;;;;;;5.57;1.88;;;;;;;;;;4994188;28;20559;-68
2022/05/18 14:10:03;;;;;;;1.80;0.90;;;;;;;;;;4994671;28;20034;-66
2022/05/18 14:12:28;;;;;;;2.97;1.10;;;;;;;;;;4994499;28;20030;-65
2022/05/18 14:14:54;;;;;;;2.85;1.10;;;;;;;;;;4993973;28;20027;-67
2022/05/18 14:17:25;;;;;;;2.70;0.93;;;;;;;;;;4994039;28;20336;-65
2022/05/18 14:20:01;;;;;;;4.05;1.10;;;;;;;;;;4993864;28;20497;-65
2022/05/18 14:22:32;;;;;;;3.10;1.15;;;;;;;;;;4991213;28;20026;-69
2022/05/18 14:25:08;;;;;;;2.85;1.10;;;;;;;;;;4991199;28;20023;-68
2022/05/18 14:27:53;;;;;;;3.15;1.17;;;;;;;;;;4989979;28;20049;-64
2022/05/18 14:30:25;;;;;;;5.78;1.08;;;;;;;;;;4989547;28;20030;-64
2022/05/18 14:32:57;;;;;;;4.55;1.20;;;;;;;;;;4981185;28;20014;-63
2022/05/18 14:35:27;;;;;;;2.08;1.35;;;;;;;;;;4984178;28;20052;-63
2022/05/18 14:37:57;;;;;;;3.50;1.00;;;;;;;;;;4988960;28;20125;-64
2022/05/18 14:40:29;;;;;;;1.55;0.93;;;;;;;;;;4990170;28;20099;-68
2022/05/18 14:42:55;;;;;;;8.27;1.25;;;;;;;;;;4989178;28;20026;-64
2022/05/18 14:45:27;;;;;;;2.80;1.15;;;;;;;;;;4989952;28;20038;-64
2022/05/18 14:48:00;;;;;;;4.45;1.20;;;;;;;;;;4988063;28;20030;-64
2022/05/18 14:50:42;;;;;;;2.88;1.20;;;;;;;;;;4991067;28;20026;-66
2022/05/18 14:53:21;;;;;;;1.95;1.00;;;;;;;;;;5001245;28;20483;-64
2022/05/18 14:56:03;;;;;;;1.97;0.93;;;;;;;;;;4993945;28;20033;-69
2022/05/18 14:58:37;;;;;;;3.03;1.10;;;;;;;;;;4993576;28;20033;-66
2022/05/18 15:01:05;;;;;;;6.85;1.20;;;;;;;;;;4993817;28;20027;-66
2022/05/18 15:03:42;;;;;;;2.97;1.10;;;;;;;;;;4993803;28;20083;-65
2022/05/18 15:06:10;;;;;;;1.80;1.00;;;;;;;;;;4995093;28;20092;-70
2022/05/18 15:08:44;;;;;;;2.72;0.98;;;;;;;;;;4993339;28;20038;-69
2022/05/18 15:11:15;;;;;;;3.63;1.20;;;;;;;;;;4975175;28;20483;-63
2022/05/18 15:13:50;;;;;;;4.32;1.05;;;;;;;;;;4973859;28;20050;-64
2022/05/18 15:16:17;;;;;;;2.80;1.05;;;;;;;;;;4974045;28;20035;-69
2022/05/18 15:18:56;;;;;;;3.45;1.10;;;;;;;;;;4973827;28;20432;-65
2022/05/18 15:22:00;;;;;;;5.70;1.02;;;;;;;;;;4974037;28;20478;-64
2022/05/18 15:24:31;;;;;;;1.73;0.90;;;;;;;;;;4969962;28;20387;-63